Time;durP1;ratioP1;P1;durP2;ratioP2;P2;SDS_P1;SDS_P2;PMS_P1;PMS_P2;Temp;Humidity;BMP_temperature;BMP_pressure;BME280_temperature;BME280_humidity;BME280_pressure;Samples;Min_cycle;Max_cycle;Signal;HPM_P1;HPM_P2
2022/01/21 00:01:14;;;;;;;4.40;2.33;;;;;;;20.43;30.94;103365.66;7316046;19;131245;-64
2022/01/21 00:03:42;;;;;;;7.07;2.42;;;;;;;20.41;30.63;103367.78;7319283;19;130429;-64
2022/01/21 00:06:10;;;;;;;6.47;2.33;;;;;;;20.38;30.91;103357.88;7315239;19;129306;-64
2022/01/21 00:08:39;;;;;;;6.60;2.03;;;;;;;20.36;30.79;103359.16;7318132;19;129088;-64
2022/01/21 00:11:07;;;;;;;6.82;2.22;;;;;;;20.34;31.04;103356.59;7314845;19;131520;-64
2022/01/21 00:13:35;;;;;;;5.07;2.38;;;;;;;20.33;30.78;103357.66;7317542;19;131400;-64
2022/01/21 00:16:20;;;;;;;4.82;2.10;;;;;;;20.31;30.97;103361.69;7319150;19;128994;-64
2022/01/21 00:18:55;;;;;;;7.43;2.40;;;;;;;20.29;30.76;103371.09;7316078;19;128830;-64
2022/01/21 00:32:25;;;;;;;8.40;2.38;;;;;;;20.17;30.89;103372.66;7315631;19;133932;-64
2022/01/21 00:34:52;;;;;;;5.10;2.00;;;;;;;20.15;31.07;103363.66;7318121;19;130614;-64
2022/01/21 00:37:19;;;;;;;3.97;2.00;;;;;;;20.14;30.67;103371.13;7315262;19;129450;-64
2022/01/21 00:39:52;;;;;;;4.18;2.42;;;;;;;20.13;31.09;103371.34;7316964;19;128910;-64
2022/01/21 00:44:50;;;;;;;4.90;2.28;;;;;;;20.11;30.91;103376.22;7315326;19;132329;-64
2022/01/21 00:47:17;;;;;;;3.28;1.90;;;;;;;20.08;30.93;103369.16;7316635;19;129315;-64
2022/01/21 00:49:43;;;;;;;5.80;2.08;;;;;;;20.08;30.96;103368.28;7316385;19;129116;-64
2022/01/21 00:52:10;;;;;;;7.47;2.50;;;;;;;20.06;31.09;103370.41;7314617;19;131365;-64
2022/01/21 00:54:37;;;;;;;5.25;2.30;;;;;;;20.04;31.11;103373.38;7314308;19;130709;-64
2022/01/21 00:57:04;;;;;;;4.53;2.13;;;;;;;20.03;30.89;103368.03;7319082;19;129287;-64
2022/01/21 00:59:31;;;;;;;4.72;2.10;;;;;;;20.01;30.70;103368.19;7313112;19;129148;-64
2022/01/21 01:01:58;;;;;;;4.93;2.13;;;;;;;20.01;31.18;103367.34;7316484;19;130594;-64
2022/01/21 01:04:28;;;;;;;3.83;1.92;;;;;;;19.99;30.93;103379.53;7313799;19;131440;-64
2022/01/21 01:06:55;;;;;;;4.03;1.83;;;;;;;19.98;30.99;103374.13;7316415;19;128851;-64
2022/01/21 01:09:21;;;;;;;6.47;2.35;;;;;;;19.97;30.94;103377.97;7315419;19;128818;-64
2022/01/21 01:20:08;;;;;;;4.35;1.90;;;;;;;19.89;31.13;103378.94;7315434;19;128873;-64
2022/01/21 01:22:58;;;;;;;3.83;2.00;;;;;;;19.88;31.08;103384.72;7316730;19;130864;-64
2022/01/21 01:28:10;;;;;;;5.60;2.08;;;;;;;19.83;31.20;103365.81;7317234;19;128711;-64
2022/01/21 01:30:36;;;;;;;4.95;2.25;;;;;;;19.81;30.84;103367.97;7312559;19;130043;-64
2022/01/21 01:33:07;;;;;;;4.75;2.10;;;;;;;19.81;31.24;103367.97;7316255;19;130673;-64
2022/01/21 01:35:35;;;;;;;3.97;2.08;;;;;;;19.81;31.15;103365.19;7313745;19;130947;-64
2022/01/21 01:40:59;;;;;;;5.60;2.13;;;;;;;19.77;31.33;103367.47;7316642;19;129918;-64
2022/01/21 01:51:29;;;;;;;4.32;2.08;;;;;;;19.72;30.94;103358.00;7313751;19;129067;-64
2022/01/21 01:54:11;;;;;;;4.15;1.55;;;;;;;19.72;31.31;103358.88;7315301;19;131260;-64
2022/01/21 01:56:42;;;;;;;3.70;1.60;;;;;;;19.68;30.91;103352.84;7313172;19;131030;-64
2022/01/21 01:59:09;;;;;;;5.47;1.65;;;;;;;19.67;31.25;103353.03;7313876;19;128776;-64
2022/01/21 02:01:36;;;;;;;3.85;1.88;;;;;;;19.65;31.07;103342.13;7312887;19;128873;-64
2022/01/21 02:04:03;;;;;;;4.20;2.00;;;;;;;19.64;31.01;103329.28;7315153;19;130595;-64
2022/01/21 02:06:30;;;;;;;5.40;2.00;;;;;;;19.62;31.39;103342.50;7311845;19;130621;-64
2022/01/21 02:08:58;;;;;;;2.92;1.52;;;;;;;19.63;31.17;103341.44;7313609;19;128645;-64
2022/01/21 02:11:25;;;;;;;4.18;2.03;;;;;;;19.61;30.91;103335.22;7314379;19;129037;-64
2022/01/21 02:13:58;;;;;;;4.22;2.05;;;;;;;19.60;31.12;103333.50;7313037;19;130710;-64
2022/01/21 02:21:44;;;;;;;3.72;1.80;;;;;;;19.57;30.88;103344.13;7314662;19;129580;-64
2022/01/21 02:24:15;;;;;;;3.15;1.70;;;;;;;19.54;31.36;103350.94;7312784;19;131380;-64
2022/01/21 02:26:43;;;;;;;3.60;1.85;;;;;;;19.52;30.90;103353.91;7313924;19;130511;-64
2022/01/21 02:29:15;;;;;;;6.20;1.67;;;;;;;19.52;31.10;103347.50;7314891;19;129403;-64
2022/01/21 02:31:41;;;;;;;4.95;2.40;;;;;;;19.51;30.89;103340.22;7312559;19;129285;-64
2022/01/21 02:34:09;;;;;;;4.00;1.50;;;;;;;19.51;31.10;103345.78;7314003;19;131493;-64
2022/01/21 02:36:36;;;;;;;4.40;1.85;;;;;;;19.49;31.25;103343.22;7310252;19;130680;-64
2022/01/21 02:39:04;;;;;;;4.93;1.83;;;;;;;19.49;31.14;103347.88;7314519;19;129057;-64
2022/01/21 02:41:31;;;;;;;4.35;2.30;;;;;;;19.48;31.39;103354.47;7310192;19;129043;-64
2022/01/21 02:43:58;;;;;;;5.55;1.92;;;;;;;19.46;30.91;103354.69;7314620;19;130848;-64
2022/01/21 02:46:26;;;;;;;3.65;1.80;;;;;;;19.45;31.25;103352.09;7311306;19;130897;-64
2022/01/21 02:48:53;;;;;;;5.63;1.77;;;;;;;19.44;30.95;103361.50;7313301;19;129039;-64
2022/01/21 02:51:20;;;;;;;4.95;1.90;;;;;;;19.44;31.06;103364.28;7312302;19;128928;-64
2022/01/21 02:56:17;;;;;;;4.50;1.67;;;;;;;19.42;30.95;103363.59;7314234;19;131243;-64
2022/01/21 02:58:45;;;;;;;4.45;2.13;;;;;;;19.41;31.39;103367.44;7312495;19;129444;-64
2022/01/21 03:01:13;;;;;;;3.28;1.80;;;;;;;19.40;31.04;103368.47;7314189;19;129367;-64
2022/01/21 03:03:43;;;;;;;4.68;1.77;;;;;;;19.38;31.36;103369.53;7311195;19;130792;-64
2022/01/21 03:06:10;;;;;;;4.80;2.10;;;;;;;19.37;31.26;103367.81;7313056;19;131282;-64
2022/01/21 03:08:36;;;;;;;4.60;1.70;;;;;;;19.36;30.94;103366.06;7312106;19;132240;-64
2022/01/21 03:11:03;;;;;;;3.63;1.80;;;;;;;19.36;31.05;103370.78;7317598;19;129155;-64
2022/01/21 03:13:30;;;;;;;5.85;1.90;;;;;;;19.35;30.95;103366.28;7320223;19;131551;-64
2022/01/21 03:15:57;;;;;;;4.15;1.70;;;;;;;19.34;31.13;103367.34;7317934;19;131932;-65
2022/01/21 03:18:23;;;;;;;5.90;2.03;;;;;;;19.32;31.01;103375.81;7320535;19;128809;-64
2022/01/21 03:20:50;;;;;;;4.25;1.52;;;;;;;19.31;31.32;103368.59;7316892;19;129477;-64
2022/01/21 03:23:19;;;;;;;2.42;1.42;;;;;;;19.30;30.96;103375.19;7319997;19;130794;-64
2022/01/21 03:25:47;;;;;;;4.32;1.90;;;;;;;19.31;31.33;103373.25;7316852;19;131195;-64
2022/01/21 03:28:15;;;;;;;2.83;1.40;;;;;;;19.28;31.25;103366.19;7319718;19;129531;-64
2022/01/21 03:30:42;;;;;;;4.15;1.75;;;;;;;19.28;31.43;103368.06;7320777;19;128893;-64
2022/01/21 03:33:08;;;;;;;3.03;1.55;;;;;;;19.26;31.00;103368.28;7316309;19;131563;-64
2022/01/21 03:35:35;;;;;;;3.38;1.60;;;;;;;19.26;31.00;103371.06;7318829;19;130685;-64
2022/01/21 03:38:02;;;;;;;3.75;1.60;;;;;;;19.25;31.44;103379.59;7318029;19;128920;-64
2022/01/21 03:40:29;;;;;;;3.40;1.40;;;;;;;19.24;31.31;103375.94;7320224;19;129198;-64
2022/01/21 03:42:56;;;;;;;4.63;1.98;;;;;;;19.22;31.03;103370.59;7315487;19;131801;-64
2022/01/21 03:45:23;;;;;;;4.22;1.50;;;;;;;19.22;31.30;103375.25;7319648;19;132108;-64
2022/01/21 03:47:52;;;;;;;3.63;1.70;;;;;;;19.21;31.17;103373.53;7317717;19;129084;-64
2022/01/21 03:50:24;;;;;;;2.78;1.40;;;;;;;19.20;31.26;103377.34;7319174;19;130271;-64
2022/01/21 03:52:51;;;;;;;4.07;1.77;;;;;;;19.20;31.16;103385.69;7315060;19;130564;-64
2022/01/21 03:55:18;;;;;;;2.92;1.55;;;;;;;19.19;31.31;103389.50;7316563;19;131058;-64
2022/01/21 03:57:45;;;;;;;3.25;1.27;;;;;;;19.17;31.14;103383.28;7319324;19;128764;-64
2022/01/21 04:00:16;;;;;;;3.78;1.50;;;;;;;19.17;31.38;103383.28;7316247;19;128933;-64
2022/01/21 04:02:43;;;;;;;4.20;1.60;;;;;;;19.15;31.38;103386.22;7318904;19;130744;-64
2022/01/21 04:05:10;;;;;;;2.85;1.48;;;;;;;19.15;31.50;103396.47;7312728;19;131157;-64
2022/01/21 04:07:37;;;;;;;4.80;1.60;;;;;;;19.15;31.22;103379.81;7317899;19;128831;-64
2022/01/21 04:10:05;;;;;;;3.47;1.40;;;;;;;19.14;31.35;103380.88;7316169;19;129819;-64
2022/01/21 04:12:32;;;;;;;3.55;1.58;;;;;;;19.13;31.33;103387.47;7315651;19;130793;-64
2022/01/21 04:14:59;;;;;;;4.15;1.50;;;;;;;19.11;31.01;103390.44;7317831;19;130556;-64
2022/01/21 04:17:26;;;;;;;2.88;1.60;;;;;;;19.10;31.48;103388.72;7317077;19;129421;-64
2022/01/21 04:19:54;;;;;;;3.17;1.60;;;;;;;19.08;31.07;103386.13;7318960;19;129172;-64
2022/01/21 04:22:21;;;;;;;3.78;1.65;;;;;;;19.07;31.45;103389.97;7313166;19;130585;-64
2022/01/21 04:24:49;;;;;;;3.50;1.73;;;;;;;19.07;31.23;103389.97;7318924;19;130733;-64
2022/01/21 04:27:19;;;;;;;3.67;1.83;;;;;;;19.08;31.60;103390.81;7313331;19;128960;-64
2022/01/21 04:29:45;;;;;;;3.97;1.58;;;;;;;19.05;31.23;103386.53;7318335;19;129349;-64
2022/01/21 04:32:12;;;;;;;3.70;1.88;;;;;;;19.04;31.19;103390.34;7314667;19;131372;-64
2022/01/21 04:34:39;;;;;;;4.93;1.70;;;;;;;19.03;31.22;103394.16;7316278;19;131081;-64
2022/01/21 04:37:10;;;;;;;2.88;1.58;;;;;;;19.04;31.11;103395.00;7317280;19;129026;-64
2022/01/21 04:39:42;;;;;;;3.55;1.77;;;;;;;19.03;31.16;103383.06;7315774;19;129052;-64
2022/01/21 04:47:47;;;;;;;3.10;1.50;;;;;;;18.98;31.18;103387.47;7316808;19;128840;-64
2022/01/21 04:50:14;;;;;;;3.22;1.60;;;;;;;18.98;31.26;103387.47;7316871;19;128895;-64
2022/01/21 04:52:41;;;;;;;3.63;1.20;;;;;;;18.97;31.14;103377.41;7313841;19;130702;-64
2022/01/21 04:55:09;;;;;;;2.75;1.40;;;;;;;18.98;31.34;103377.22;7316787;19;130659;-64
2022/01/21 04:57:36;;;;;;;3.35;1.65;;;;;;;19.00;31.14;103372.34;7313873;19;128886;-64
2022/01/21 05:00:06;;;;;;;3.28;1.50;;;;;;;19.04;31.29;103379.25;7316094;19;128961;-64
2022/01/21 05:02:35;;;;;;;3.65;1.50;;;;;;;19.14;31.33;103380.88;7305610;19;131034;-65
2022/01/21 05:05:03;;;;;;;3.83;1.73;;;;;;;19.26;31.19;103379.38;7316177;19;131418;-64
2022/01/21 05:07:34;;;;;;;2.65;1.45;;;;;;;19.43;30.75;103387.53;7312285;19;130752;-64
2022/01/21 05:10:03;;;;;;;3.63;1.90;;;;;;;19.62;30.62;103391.63;7316293;19;128996;-64
2022/01/21 05:12:30;;;;;;;5.95;1.67;;;;;;;19.87;30.71;103394.94;7313472;19;130727;-64
2022/01/21 05:17:25;;;;;;;3.20;1.45;;;;;;;20.40;30.14;103393.84;7315955;19;130546;-64
2022/01/21 05:19:52;;;;;;;2.72;1.38;;;;;;;20.67;29.94;103388.56;7314440;19;129133;-64
2022/01/21 05:22:19;;;;;;;3.00;1.63;;;;;;;20.95;29.44;103396.94;7316867;19;130639;-64
2022/01/21 05:24:46;;;;;;;2.13;1.13;;;;;;;21.19;29.35;103387.25;7312486;19;130477;-64
2022/01/21 05:27:13;;;;;;;2.85;1.40;;;;;;;21.42;28.85;103386.09;7315397;19;128942;-64
2022/01/21 05:29:40;;;;;;;2.33;1.35;;;;;;;21.61;28.74;103392.88;7313555;19;128889;-64
2022/01/21 05:32:08;;;;;;;2.80;1.20;;;;;;;21.74;28.26;103383.72;7315600;19;130735;-64
2022/01/21 05:34:35;;;;;;;2.38;1.30;;;;;;;21.82;28.66;103375.19;7312587;19;130848;-65
2022/01/21 05:37:06;;;;;;;2.83;1.30;;;;;;;21.85;28.41;103381.41;7312579;19;129339;-64
2022/01/21 05:39:33;;;;;;;3.45;1.55;;;;;;;21.85;28.08;103378.63;7314000;19;128859;-64
2022/01/21 05:42:01;;;;;;;2.88;1.58;;;;;;;21.81;28.29;103392.13;7312878;19;131492;-64
2022/01/21 05:46:57;;;;;;;2.10;1.23;;;;;;;21.71;28.64;103389.72;7311709;19;129048;-64
2022/01/21 05:49:27;;;;;;;2.08;1.35;;;;;;;21.65;28.51;103387.78;7315529;19;129171;-64
2022/01/21 05:52:02;;;;;;;3.45;1.30;;;;;;;21.56;28.79;103384.28;7309061;19;135119;-64
2022/01/21 05:54:29;;;;;;;2.90;1.60;;;;;;;21.47;28.68;103383.56;7305166;19;131649;-64
2022/01/21 05:56:57;;;;;;;2.53;1.30;;;;;;;21.40;28.57;103384.59;7309683;19;129510;-64
2022/01/21 05:59:24;;;;;;;2.40;1.27;;;;;;;21.31;28.96;103383.91;7310650;19;128890;-64
2022/01/21 06:01:51;;;;;;;2.58;1.40;;;;;;;21.22;28.90;103380.44;7311649;19;132250;-64
2022/01/21 06:04:18;;;;;;;3.00;1.30;;;;;;;21.14;28.97;103375.88;7308234;19;130563;-64
2022/01/21 06:06:45;;;;;;;2.97;1.40;;;;;;;21.06;29.02;103390.81;7315588;19;129114;-65
2022/01/21 06:09:11;;;;;;;2.40;1.17;;;;;;;20.98;29.37;103395.66;7312118;19;128825;-63
2022/01/21 06:11:38;;;;;;;2.17;1.20;;;;;;;20.89;29.18;103387.47;7314873;19;130736;-64
2022/01/21 06:14:05;;;;;;;2.15;1.27;;;;;;;20.82;29.36;103383.78;7312634;19;131440;-64
2022/01/21 06:16:34;;;;;;;3.25;1.20;;;;;;;20.75;29.68;103383.72;7312770;19;129003;-64
2022/01/21 06:19:01;;;;;;;2.60;1.38;;;;;;;20.68;29.23;103374.44;7315318;19;128913;-64
2022/01/21 06:21:28;;;;;;;2.75;1.40;;;;;;;20.62;29.34;103371.59;7313284;19;131338;-64
2022/01/21 06:23:54;;;;;;;2.85;1.30;;;;;;;20.55;29.53;103377.09;7314570;19;131632;-63
2022/01/21 06:26:21;;;;;;;3.92;1.42;;;;;;;20.49;29.90;103386.25;7312660;19;129021;-64
2022/01/21 06:28:48;;;;;;;2.10;1.17;;;;;;;20.44;29.65;103384.91;7315214;19;128784;-64
2022/01/21 06:31:14;;;;;;;2.05;1.17;;;;;;;20.43;29.57;103379.56;7311398;19;130646;-64
2022/01/21 06:33:41;;;;;;;2.05;1.20;;;;;;;20.44;29.51;103386.81;7313234;19;131617;-64
2022/01/21 06:36:08;;;;;;;2.67;1.17;;;;;;;20.49;29.76;103392.66;7312382;19;128907;-64
2022/01/21 06:38:35;;;;;;;2.53;1.17;;;;;;;20.56;29.48;103398.28;7312530;19;130094;-63
2022/01/21 06:41:02;;;;;;;2.15;0.98;;;;;;;20.64;29.63;103400.06;7311374;19;131501;-64
2022/01/21 06:43:29;;;;;;;5.05;1.48;;;;;;;20.73;29.35;103398.88;7311249;19;130574;-64
2022/01/21 06:45:56;;;;;;;4.18;1.20;;;;;;;20.81;29.32;103409.88;7312963;19;129408;-64
2022/01/21 06:48:23;;;;;;;2.58;1.20;;;;;;;20.87;29.39;103406.28;7312197;19;130315;-64
2022/01/21 06:50:50;;;;;;;4.07;1.05;;;;;;;20.96;29.09;103408.91;7313560;19;130472;-64
2022/01/21 06:53:16;;;;;;;2.28;1.00;;;;;;;21.01;29.14;103407.25;7309139;19;131211;-64
2022/01/21 06:55:43;;;;;;;4.43;1.50;;;;;;;21.09;28.97;103408.19;7314306;19;130008;-64
2022/01/21 06:58:10;;;;;;;2.03;1.10;;;;;;;21.14;29.12;103420.41;7311319;19;128883;-64
2022/01/21 07:00:36;;;;;;;3.13;1.33;;;;;;;21.20;29.34;103429.88;7313037;19;130975;-64
2022/01/21 07:03:03;;;;;;;2.63;1.20;;;;;;;21.27;28.94;103438.28;7311348;19;130509;-64
2022/01/21 07:05:30;;;;;;;2.25;1.15;;;;;;;21.31;29.00;103434.88;7312191;19;128856;-64
2022/01/21 07:07:59;;;;;;;1.90;0.90;;;;;;;21.36;28.64;103449.03;7311863;19;131273;-64
2022/01/21 07:10:27;;;;;;;3.00;1.08;;;;;;;21.42;29.00;103450.16;7311408;19;131026;-64
2022/01/21 07:12:53;;;;;;;1.42;0.98;;;;;;;21.48;29.02;103456.81;7312579;19;131491;-64
2022/01/21 07:15:20;;;;;;;1.98;1.10;;;;;;;21.50;29.00;103455.59;7311261;19;129008;-64
2022/01/21 07:17:53;;;;;;;2.03;1.02;;;;;;;21.56;28.84;103453.06;7314294;19;128905;-64
2022/01/21 07:20:20;;;;;;;2.80;1.15;;;;;;;21.59;28.69;103453.53;7309953;19;132081;-64
2022/01/21 07:22:48;;;;;;;2.45;0.90;;;;;;;21.63;28.35;103453.97;7312147;19;131970;-64
2022/01/21 07:25:15;;;;;;;1.92;1.00;;;;;;;21.65;28.47;103449.06;7303664;19;129466;-64
2022/01/21 07:27:44;;;;;;;1.73;1.00;;;;;;;21.64;28.49;103450.97;7307769;19;130643;-64
2022/01/21 07:30:12;;;;;;;2.30;1.00;;;;;;;21.64;28.26;103455.69;7312671;19;130786;-64
2022/01/21 07:32:40;;;;;;;3.75;1.25;;;;;;;21.63;28.00;103457.59;7310574;19;130626;-64
2022/01/21 07:35:09;;;;;;;2.75;1.00;;;;;;;21.63;27.90;103465.13;7313019;19;128806;-64
2022/01/21 07:37:53;;;;;;;1.83;0.90;;;;;;;21.61;28.10;103456.94;7308332;19;128777;-64
2022/01/21 07:40:19;;;;;;;3.72;1.25;;;;;;;21.62;28.21;103457.81;7311463;19;129480;-64
2022/01/21 07:42:46;;;;;;;1.90;0.80;;;;;;;21.64;28.17;103461.25;7308751;19;130771;-64
2022/01/21 07:45:13;;;;;;;2.80;1.00;;;;;;;21.65;28.13;103457.41;7310392;19;129366;-64
2022/01/21 07:47:39;;;;;;;1.80;0.90;;;;;;;21.67;28.34;103466.41;7311156;19;128865;-64
2022/01/21 07:50:07;;;;;;;1.52;0.80;;;;;;;21.80;28.27;103463.69;7308696;19;130522;-64
2022/01/21 07:52:34;;;;;;;1.50;0.82;;;;;;;21.93;27.66;103470.41;7311713;19;131472;-64
2022/01/21 07:55:00;;;;;;;2.85;1.08;;;;;;;21.90;28.21;103470.84;7308746;19;128853;-64
2022/01/21 07:57:27;;;;;;;2.28;1.17;;;;;;;21.88;28.24;103471.03;7315935;19;128796;-64
2022/01/21 07:59:54;;;;;;;2.33;0.90;;;;;;;21.86;27.76;103469.53;7315751;19;131549;-64
2022/01/21 08:02:23;;;;;;;2.30;1.08;;;;;;;21.82;28.24;103467.13;7317186;19;131797;-64
2022/01/21 08:04:50;;;;;;;2.38;0.88;;;;;;;21.81;28.29;103473.78;7312422;19;131606;-64
2022/01/21 08:07:17;;;;;;;1.67;0.88;;;;;;;21.80;28.04;103462.84;7317761;19;128942;-64
2022/01/21 08:09:43;;;;;;;2.67;0.90;;;;;;;21.77;28.16;103480.84;7318538;19;131150;-64
2022/01/21 08:12:11;;;;;;;5.05;1.20;;;;;;;21.75;28.23;103484.88;7313801;19;130383;-64
2022/01/21 08:14:38;;;;;;;2.60;0.90;;;;;;;21.73;28.14;103487.88;7314733;19;128854;-64
2022/01/21 08:17:06;;;;;;;5.90;1.40;;;;;;;21.70;28.12;103481.88;7315357;19;129052;-64
2022/01/21 08:19:33;;;;;;;3.72;1.38;;;;;;;21.66;27.69;103481.44;7317946;19;130575;-64
2022/01/21 08:22:00;;;;;;;6.47;1.45;;;;;;;21.70;27.45;103474.34;7314851;19;131258;-64
2022/01/21 08:24:27;;;;;;;10.35;1.58;;;;;;;21.69;27.53;103486.56;7318151;19;128649;-64
2022/01/21 08:26:54;;;;;;;5.32;1.40;;;;;;;21.59;27.44;103480.50;7315603;19;129463;-64
2022/01/21 08:29:20;;;;;;;4.70;1.77;;;;;;;21.52;27.94;103474.88;7316903;19;130706;-64
2022/01/21 08:31:47;;;;;;;3.83;1.33;;;;;;;21.46;27.76;103476.53;7313220;19;131103;-64
2022/01/21 08:34:15;;;;;;;4.13;1.20;;;;;;;21.40;28.10;103473.69;7316125;19;128927;-64
2022/01/21 08:36:43;;;;;;;5.43;1.45;;;;;;;21.34;27.90;103475.38;7318156;19;129056;-63
2022/01/21 08:39:10;;;;;;;5.25;1.40;;;;;;;21.32;27.86;103474.72;7315281;19;131304;-64
2022/01/21 08:41:37;;;;;;;5.75;1.30;;;;;;;21.29;28.01;103475.16;7317159;19;131395;-64
2022/01/21 08:44:04;;;;;;;6.68;1.65;;;;;;;21.26;27.79;103469.97;7312553;19;129114;-64
2022/01/21 08:46:31;;;;;;;7.18;1.55;;;;;;;21.26;27.97;103458.84;7316385;19;129037;-64
2022/01/21 08:48:58;;;;;;;6.80;1.40;;;;;;;21.33;27.97;103460.59;7313814;19;134654;-64
2022/01/21 08:51:25;;;;;;;8.73;1.35;;;;;;;21.47;27.94;103457.91;7316395;19;133045;-64
2022/01/21 08:53:53;;;;;;;4.93;1.50;;;;;;;21.52;27.73;103459.06;7313463;19;129039;-64
2022/01/21 08:56:20;;;;;;;4.18;1.70;;;;;;;21.36;27.93;103460.19;7315963;19;128956;-64
2022/01/21 08:58:48;;;;;;;5.93;1.50;;;;;;;21.26;28.07;103458.84;7313828;19;131638;-64
2022/01/21 09:01:16;;;;;;;7.38;1.70;;;;;;;21.17;27.76;103458.13;7314786;19;131313;-64
2022/01/21 09:03:43;;;;;;;6.03;1.88;;;;;;;21.10;28.27;103466.41;7317596;19;129790;-64
2022/01/21 09:06:11;;;;;;;7.18;1.70;;;;;;;21.02;28.26;103463.78;7313488;19;129481;-64
2022/01/21 09:08:40;;;;;;;8.85;1.80;;;;;;;20.97;28.45;103466.31;7315832;19;130819;-64
2022/01/21 09:11:07;;;;;;;12.20;2.45;;;;;;;20.90;28.54;103469.91;7313701;19;130651;-64
2022/01/21 09:13:39;;;;;;;7.75;2.13;;;;;;;20.88;28.20;103477.59;7316327;19;128910;-64
2022/01/21 09:16:07;;;;;;;5.82;2.40;;;;;;;20.84;27.67;103473.47;7314698;19;129353;-63
2022/01/21 09:18:45;;;;;;;10.23;2.80;;;;;;;20.81;27.54;103473.84;7315465;19;131157;-64
2022/01/21 09:21:29;;;;;;;6.65;2.58;;;;;;;20.78;27.49;103478.97;7316552;19;131018;-64
2022/01/21 09:23:56;;;;;;;8.32;2.80;;;;;;;20.75;27.49;103466.28;7313472;19;129476;-64
2022/01/21 09:26:25;;;;;;;15.10;2.80;;;;;;;20.75;27.52;103469.94;7316613;19;131068;-63
2022/01/21 09:28:55;;;;;;;10.63;2.97;;;;;;;20.78;27.72;103478.97;7313868;19;130599;-64
2022/01/21 09:31:23;;;;;;;7.88;3.00;;;;;;;20.82;27.62;103481.16;7316014;19;130869;-64
2022/01/21 09:34:11;;;;;;;8.98;2.53;;;;;;;20.93;27.87;103481.66;7313115;19;130046;-64
2022/01/21 09:36:37;;;;;;;9.60;2.72;;;;;;;21.02;27.81;103480.50;7314318;19;129571;-64
2022/01/21 09:39:05;;;;;;;9.45;2.85;;;;;;;21.13;27.57;103477.16;7315841;19;130569;-64
2022/01/21 09:41:32;;;;;;;10.20;2.92;;;;;;;21.22;27.34;103475.09;7313388;19;130743;-64
2022/01/21 09:44:02;;;;;;;9.70;2.90;;;;;;;21.32;27.60;103464.44;7315542;19;129830;-64
2022/01/21 09:46:36;;;;;;;8.45;2.67;;;;;;;21.42;27.47;103464.06;7312682;19;129554;-64
2022/01/21 09:49:09;;;;;;;13.75;2.97;;;;;;;21.50;27.45;103472.31;7316114;19;131653;-64
2022/01/21 09:51:36;;;;;;;9.45;2.85;;;;;;;21.58;27.53;103468.53;7313256;19;130523;-64
2022/01/21 09:54:06;;;;;;;8.18;2.47;;;;;;;21.65;27.47;103476.91;7314092;19;130041;-64
2022/01/21 09:56:37;;;;;;;7.90;2.65;;;;;;;21.68;27.66;103482.06;7315649;19;129383;-64
2022/01/21 09:59:05;;;;;;;11.65;3.00;;;;;;;21.73;27.32;103471.16;7312827;19;131404;-64
2022/01/21 10:01:33;;;;;;;8.90;2.80;;;;;;;21.76;27.20;103481.03;7314810;19;130410;-64
2022/01/21 10:04:01;;;;;;;8.10;2.53;;;;;;;21.79;27.63;103489.84;7312788;19;128987;-64
2022/01/21 10:06:29;;;;;;;5.50;2.33;;;;;;;21.83;27.71;103495.88;7314920;19;128905;-64
2022/01/21 10:08:56;;;;;;;10.20;2.30;;;;;;;21.85;27.69;103501.22;7312540;19;130767;-64
2022/01/21 10:11:24;;;;;;;8.50;2.45;;;;;;;21.88;27.57;103500.84;7313415;19;130570;-64
2022/01/21 10:13:52;;;;;;;10.95;2.63;;;;;;;21.90;27.27;103495.91;7314347;19;129896;-64
2022/01/21 10:16:18;;;;;;;6.68;2.67;;;;;;;21.93;27.75;103509.41;7313234;19;129325;-64
2022/01/21 10:19:00;;;;;;;9.70;2.63;;;;;;;21.96;27.77;103500.66;7314259;19;130656;-64
2022/01/21 10:21:35;;;;;;;6.35;2.38;;;;;;;21.96;27.51;103503.44;7311345;19;130688;-64
2022/01/21 10:24:14;;;;;;;7.07;2.60;;;;;;;21.97;27.31;103502.38;7314171;19;128900;-63
2022/01/21 10:26:52;;;;;;;12.35;3.13;;;;;;;21.94;27.32;103506.44;7310879;19;129032;-64
2022/01/21 10:29:20;;;;;;;8.38;2.78;;;;;;;21.95;27.30;103507.28;7313200;19;130558;-64
2022/01/21 10:32:12;;;;;;;8.35;2.25;;;;;;;21.93;27.66;103512.19;7314770;19;131184;-63
2022/01/21 10:34:41;;;;;;;6.68;2.55;;;;;;;21.92;27.71;103519.72;7310939;19;128972;-63
2022/01/21 10:37:26;;;;;;;8.13;2.47;;;;;;;21.94;27.82;103528.75;7314108;19;128959;-63
2022/01/21 10:40:06;;;;;;;6.47;2.30;;;;;;;21.95;27.64;103524.00;7310814;19;130584;-64
2022/01/21 10:42:32;;;;;;;6.60;2.25;;;;;;;21.98;27.73;103524.44;7313094;19;130648;-64
2022/01/21 10:45:00;;;;;;;6.72;2.38;;;;;;;22.05;27.31;103518.06;7314293;19;128998;-64
2022/01/21 10:47:32;;;;;;;10.32;2.53;;;;;;;22.12;27.54;103522.63;7310193;19;129546;-64
2022/01/21 10:50:11;;;;;;;13.02;2.47;;;;;;;22.19;27.53;103521.75;7313087;19;131593;-64
2022/01/21 10:52:58;;;;;;;7.05;2.35;;;;;;;22.26;27.16;103519.91;7310805;19;131032;-64
2022/01/21 10:55:37;;;;;;;11.00;2.30;;;;;;;22.34;27.11;103521.66;7311099;19;131088;-63
2022/01/21 10:58:17;;;;;;;9.13;2.35;;;;;;;22.42;26.80;103515.88;7309371;19;131555;-63
2022/01/21 11:01:02;;;;;;;6.88;2.22;;;;;;;22.49;26.85;103505.59;7311146;19;131333;-64
2022/01/21 11:03:30;;;;;;;13.57;2.30;;;;;;;22.54;26.94;103504.97;7313169;19;130806;-64
2022/01/21 11:06:17;;;;;;;9.15;2.22;;;;;;;22.60;26.96;103504.13;7310418;19;129342;-63
2022/01/21 11:08:48;;;;;;;8.73;2.47;;;;;;;22.63;27.00;103498.16;7312759;19;129511;-64
2022/01/21 11:11:23;;;;;;;8.70;2.17;;;;;;;22.63;27.12;103495.34;7309422;19;131780;-63
2022/01/21 11:13:50;;;;;;;7.30;2.22;;;;;;;22.65;27.08;103493.19;7310502;19;131093;-64
2022/01/21 11:16:24;;;;;;;7.15;2.45;;;;;;;22.67;27.17;103493.84;7311318;19;132088;-63
2022/01/21 11:19:13;;;;;;;12.02;2.42;;;;;;;22.68;27.19;103489.97;7308481;19;130146;-64
2022/01/21 11:21:48;;;;;;;11.82;2.75;;;;;;;22.72;27.00;103482.03;7313366;19;132015;-63
2022/01/21 11:24:17;;;;;;;8.00;2.28;;;;;;;22.74;27.50;103488.28;7310225;19;130708;-64
2022/01/21 11:26:44;;;;;;;8.40;2.15;;;;;;;22.77;27.33;103478.63;7311979;19;129049;-64
2022/01/21 11:29:11;;;;;;;8.95;2.05;;;;;;;22.80;27.21;103483.78;7312438;19;128961;-64
2022/01/21 11:31:38;;;;;;;7.70;1.90;;;;;;;22.81;27.33;103478.00;7315332;19;130752;-64
2022/01/21 11:34:09;;;;;;;8.48;1.85;;;;;;;22.82;27.63;103467.69;7319056;19;131166;-63
2022/01/21 11:36:36;;;;;;;7.05;2.20;;;;;;;22.81;27.88;103466.84;7316485;19;129186;-63
2022/01/21 11:39:03;;;;;;;5.18;2.30;;;;;;;22.80;28.11;103459.53;7320663;19;129442;-63
2022/01/21 11:41:30;;;;;;;5.80;2.28;;;;;;;22.79;27.83;103462.50;7315570;19;130621;-63
2022/01/21 11:44:01;;;;;;;8.05;2.15;;;;;;;22.78;28.13;103467.25;7318526;19;131356;-63
2022/01/21 11:49:09;;;;;;;8.10;1.58;;;;;;;22.77;28.14;103439.56;7317860;19;129059;-64
2022/01/21 11:51:40;;;;;;;5.90;2.28;;;;;;;22.74;27.91;103443.63;7319566;19;130540;-64
2022/01/21 11:54:13;;;;;;;6.57;1.90;;;;;;;22.72;28.18;103429.91;7317792;19;130685;-64
2022/01/21 11:57:02;;;;;;;6.53;2.28;;;;;;;22.69;28.35;103435.91;7319419;19;129619;-64
2022/01/21 12:02:13;;;;;;;5.82;1.70;;;;;;;22.63;28.60;103431.19;7316184;19;131705;-62
2022/01/21 12:04:46;;;;;;;4.82;1.90;;;;;;;22.60;28.35;103437.19;7316374;19;130579;-62
2022/01/21 12:07:57;;;;;;;8.07;2.20;;;;;;;22.56;28.51;103433.97;7318201;19;130251;-62
2022/01/21 12:10:21;;;;;;;7.55;2.10;;;;;;;22.52;28.56;103435.44;7319146;19;128943;-62
2022/01/21 12:12:56;;;;;;;6.32;1.52;;;;;;;22.51;28.97;103438.47;7315281;19;131217;-62
2022/01/21 12:15:30;;;;;;;6.25;1.85;;;;;;;22.48;28.88;103438.88;7317675;19;130699;-62
2022/01/21 12:20:59;;;;;;;9.13;2.08;;;;;;;22.44;29.36;103439.28;7316315;19;129687;-64
2022/01/21 12:23:27;;;;;;;10.57;2.05;;;;;;;22.43;29.31;103434.78;7318586;19;131346;-63
2022/01/21 12:26:20;;;;;;;7.18;2.15;;;;;;;22.44;29.33;103435.66;7315625;19;130489;-63
2022/01/21 12:28:56;;;;;;;6.60;1.92;;;;;;;22.42;29.54;103433.06;7319267;19;128873;-63